sensor_id;sensor_type;location;lat;lon;timestamp;P1;durP1;ratioP1;P2;durP2;ratioP2
73675;SDS011;61975;48.660;10.164;2023-06-10T00:01:36;8.00;;;5.60;;
73675;SDS011;61975;48.660;10.164;2023-06-10T00:04:02;8.23;;;5.67;;
73675;SDS011;61975;48.660;10.164;2023-06-10T00:06:27;7.63;;;5.47;;
73675;SDS011;61975;48.660;10.164;2023-06-10T00:08:53;7.93;;;5.47;;
73675;SDS011;61975;48.660;10.164;2023-06-10T00:11:20;8.18;;;5.70;;
73675;SDS011;61975;48.660;10.164;2023-06-10T00:13:46;7.72;;;5.40;;
73675;SDS011;61975;48.660;10.164;2023-06-10T00:16:12;9.80;;;5.90;;
73675;SDS011;61975;48.660;10.164;2023-06-10T00:18:37;8.35;;;5.85;;
73675;SDS011;61975;48.660;10.164;2023-06-10T00:21:03;8.73;;;5.77;;
73675;SDS011;61975;48.660;10.164;2023-06-10T00:23:29;9.65;;;5.93;;
73675;SDS011;61975;48.660;10.164;2023-06-10T00:26:02;9.05;;;6.15;;
73675;SDS011;61975;48.660;10.164;2023-06-10T00:28:27;9.37;;;6.07;;
73675;SDS011;61975;48.660;10.164;2023-06-10T00:30:53;9.47;;;6.00;;
73675;SDS011;61975;48.660;10.164;2023-06-10T00:33:18;8.73;;;5.90;;
73675;SDS011;61975;48.660;10.164;2023-06-10T00:35:43;9.87;;;5.47;;
73675;SDS011;61975;48.660;10.164;2023-06-10T00:38:09;7.97;;;5.70;;
73675;SDS011;61975;48.660;10.164;2023-06-10T00:40:40;8.00;;;5.93;;
73675;SDS011;61975;48.660;10.164;2023-06-10T00:43:06;8.13;;;5.70;;
73675;SDS011;61975;48.660;10.164;2023-06-10T00:45:32;8.50;;;5.50;;
73675;SDS011;61975;48.660;10.164;2023-06-10T00:47:58;7.83;;;5.67;;
73675;SDS011;61975;48.660;10.164;2023-06-10T00:50:25;8.25;;;5.90;;
73675;SDS011;61975;48.660;10.164;2023-06-10T00:52:50;7.80;;;5.50;;
73675;SDS011;61975;48.660;10.164;2023-06-10T00:55:17;8.85;;;5.85;;
73675;SDS011;61975;48.660;10.164;2023-06-10T00:57:43;9.83;;;5.73;;
73675;SDS011;61975;48.660;10.164;2023-06-10T01:00:11;8.03;;;5.80;;
73675;SDS011;61975;48.660;10.164;2023-06-10T01:02:37;8.07;;;5.65;;
73675;SDS011;61975;48.660;10.164;2023-06-10T01:05:03;8.50;;;5.65;;
73675;SDS011;61975;48.660;10.164;2023-06-10T01:10:18;8.65;;;5.72;;
73675;SDS011;61975;48.660;10.164;2023-06-10T01:12:59;8.68;;;5.65;;
73675;SDS011;61975;48.660;10.164;2023-06-10T01:15:33;8.63;;;5.60;;
73675;SDS011;61975;48.660;10.164;2023-06-10T01:18:01;8.10;;;5.43;;
73675;SDS011;61975;48.660;10.164;2023-06-10T01:20:28;8.47;;;5.80;;
73675;SDS011;61975;48.660;10.164;2023-06-10T01:22:56;8.57;;;5.60;;
73675;SDS011;61975;48.660;10.164;2023-06-10T01:25:27;8.40;;;6.00;;
73675;SDS011;61975;48.660;10.164;2023-06-10T01:28:36;8.90;;;5.85;;
73675;SDS011;61975;48.660;10.164;2023-06-10T01:30:53;8.27;;;5.88;;
73675;SDS011;61975;48.660;10.164;2023-06-10T01:33:27;9.73;;;5.97;;
73675;SDS011;61975;48.660;10.164;2023-06-10T01:35:55;9.07;;;5.72;;
73675;SDS011;61975;48.660;10.164;2023-06-10T01:38:22;9.95;;;5.80;;
73675;SDS011;61975;48.660;10.164;2023-06-10T01:40:52;9.35;;;5.60;;
73675;SDS011;61975;48.660;10.164;2023-06-10T01:43:20;8.70;;;5.65;;
73675;SDS011;61975;48.660;10.164;2023-06-10T01:45:46;8.13;;;5.10;;
73675;SDS011;61975;48.660;10.164;2023-06-10T01:48:11;8.13;;;5.65;;
73675;SDS011;61975;48.660;10.164;2023-06-10T01:50:37;9.30;;;5.67;;
73675;SDS011;61975;48.660;10.164;2023-06-10T01:53:03;8.80;;;5.50;;
73675;SDS011;61975;48.660;10.164;2023-06-10T01:55:29;8.43;;;5.53;;
73675;SDS011;61975;48.660;10.164;2023-06-10T01:57:54;9.03;;;5.63;;
73675;SDS011;61975;48.660;10.164;2023-06-10T02:00:20;8.93;;;5.68;;
73675;SDS011;61975;48.660;10.164;2023-06-10T02:02:45;7.60;;;5.20;;
73675;SDS011;61975;48.660;10.164;2023-06-10T02:05:11;7.83;;;5.50;;
73675;SDS011;61975;48.660;10.164;2023-06-10T02:07:36;9.10;;;5.70;;
73675;SDS011;61975;48.660;10.164;2023-06-10T02:10:03;8.00;;;5.55;;
73675;SDS011;61975;48.660;10.164;2023-06-10T02:12:29;8.27;;;5.22;;
73675;SDS011;61975;48.660;10.164;2023-06-10T02:14:54;8.03;;;5.53;;
73675;SDS011;61975;48.660;10.164;2023-06-10T02:17:20;8.30;;;5.13;;
73675;SDS011;61975;48.660;10.164;2023-06-10T02:19:45;7.93;;;5.20;;
73675;SDS011;61975;48.660;10.164;2023-06-10T02:22:21;8.65;;;5.70;;
73675;SDS011;61975;48.660;10.164;2023-06-10T02:24:47;8.23;;;5.60;;
73675;SDS011;61975;48.660;10.164;2023-06-10T02:27:14;8.55;;;5.70;;
73675;SDS011;61975;48.660;10.164;2023-06-10T02:29:40;8.57;;;5.25;;
73675;SDS011;61975;48.660;10.164;2023-06-10T02:32:06;6.93;;;5.00;;
73675;SDS011;61975;48.660;10.164;2023-06-10T02:34:32;9.07;;;5.55;;
73675;SDS011;61975;48.660;10.164;2023-06-10T02:36:58;9.02;;;5.90;;
73675;SDS011;61975;48.660;10.164;2023-06-10T02:39:24;8.70;;;5.47;;
73675;SDS011;61975;48.660;10.164;2023-06-10T02:41:49;8.45;;;5.53;;
73675;SDS011;61975;48.660;10.164;2023-06-10T02:44:15;8.97;;;5.70;;
73675;SDS011;61975;48.660;10.164;2023-06-10T02:46:40;9.13;;;5.40;;
73675;SDS011;61975;48.660;10.164;2023-06-10T02:49:05;11.13;;;5.70;;
73675;SDS011;61975;48.660;10.164;2023-06-10T02:51:31;8.23;;;5.40;;
73675;SDS011;61975;48.660;10.164;2023-06-10T02:53:56;8.90;;;5.68;;
73675;SDS011;61975;48.660;10.164;2023-06-10T02:56:22;9.43;;;5.60;;
73675;SDS011;61975;48.660;10.164;2023-06-10T02:58:47;9.43;;;5.57;;
73675;SDS011;61975;48.660;10.164;2023-06-10T03:01:13;9.98;;;5.57;;
73675;SDS011;61975;48.660;10.164;2023-06-10T03:03:40;9.15;;;5.47;;
73675;SDS011;61975;48.660;10.164;2023-06-10T03:06:07;7.97;;;5.03;;
73675;SDS011;61975;48.660;10.164;2023-06-10T03:08:36;7.47;;;5.25;;
73675;SDS011;61975;48.660;10.164;2023-06-10T03:11:02;8.98;;;5.75;;
73675;SDS011;61975;48.660;10.164;2023-06-10T03:13:28;8.55;;;5.47;;
73675;SDS011;61975;48.660;10.164;2023-06-10T03:15:54;7.57;;;5.07;;
73675;SDS011;61975;48.660;10.164;2023-06-10T03:18:19;8.43;;;4.93;;
73675;SDS011;61975;48.660;10.164;2023-06-10T03:20:45;8.80;;;5.40;;
73675;SDS011;61975;48.660;10.164;2023-06-10T03:23:11;8.37;;;5.57;;
73675;SDS011;61975;48.660;10.164;2023-06-10T03:25:36;8.85;;;5.72;;
73675;SDS011;61975;48.660;10.164;2023-06-10T03:28:02;8.10;;;4.87;;
73675;SDS011;61975;48.660;10.164;2023-06-10T03:30:27;8.50;;;5.40;;
73675;SDS011;61975;48.660;10.164;2023-06-10T03:32:53;9.30;;;5.28;;
73675;SDS011;61975;48.660;10.164;2023-06-10T03:35:19;9.20;;;5.27;;
73675;SDS011;61975;48.660;10.164;2023-06-10T03:37:44;8.77;;;5.30;;
73675;SDS011;61975;48.660;10.164;2023-06-10T03:40:10;8.10;;;5.20;;
73675;SDS011;61975;48.660;10.164;2023-06-10T03:42:36;8.85;;;5.60;;
73675;SDS011;61975;48.660;10.164;2023-06-10T03:45:02;9.32;;;5.20;;
73675;SDS011;61975;48.660;10.164;2023-06-10T03:47:35;8.43;;;5.17;;
73675;SDS011;61975;48.660;10.164;2023-06-10T03:50:04;8.05;;;4.90;;
73675;SDS011;61975;48.660;10.164;2023-06-10T03:52:30;8.38;;;5.00;;
73675;SDS011;61975;48.660;10.164;2023-06-10T03:54:56;8.20;;;5.30;;
73675;SDS011;61975;48.660;10.164;2023-06-10T03:57:21;8.77;;;5.30;;
73675;SDS011;61975;48.660;10.164;2023-06-10T03:59:47;7.93;;;5.37;;
73675;SDS011;61975;48.660;10.164;2023-06-10T04:02:12;7.93;;;5.10;;
73675;SDS011;61975;48.660;10.164;2023-06-10T04:04:38;9.95;;;5.30;;
73675;SDS011;61975;48.660;10.164;2023-06-10T04:07:04;9.10;;;4.90;;
73675;SDS011;61975;48.660;10.164;2023-06-10T04:09:30;9.23;;;5.30;;
73675;SDS011;61975;48.660;10.164;2023-06-10T04:11:56;8.43;;;5.03;;
73675;SDS011;61975;48.660;10.164;2023-06-10T04:14:21;9.40;;;5.70;;
73675;SDS011;61975;48.660;10.164;2023-06-10T04:16:46;9.52;;;4.63;;
73675;SDS011;61975;48.660;10.164;2023-06-10T04:19:12;7.70;;;4.73;;
73675;SDS011;61975;48.660;10.164;2023-06-10T04:21:37;8.43;;;5.03;;
73675;SDS011;61975;48.660;10.164;2023-06-10T04:24:03;9.07;;;5.00;;
73675;SDS011;61975;48.660;10.164;2023-06-10T04:26:28;8.10;;;4.90;;
73675;SDS011;61975;48.660;10.164;2023-06-10T04:28:54;8.27;;;5.17;;
73675;SDS011;61975;48.660;10.164;2023-06-10T04:31:19;8.33;;;5.00;;
73675;SDS011;61975;48.660;10.164;2023-06-10T04:33:45;8.30;;;4.45;;
73675;SDS011;61975;48.660;10.164;2023-06-10T04:36:11;8.90;;;4.97;;
73675;SDS011;61975;48.660;10.164;2023-06-10T04:38:36;7.60;;;4.90;;
73675;SDS011;61975;48.660;10.164;2023-06-10T04:41:02;7.82;;;4.53;;
73675;SDS011;61975;48.660;10.164;2023-06-10T04:43:27;7.57;;;4.77;;
73675;SDS011;61975;48.660;10.164;2023-06-10T04:45:54;7.60;;;5.00;;
73675;SDS011;61975;48.660;10.164;2023-06-10T04:48:19;7.93;;;4.90;;
73675;SDS011;61975;48.660;10.164;2023-06-10T04:50:45;7.87;;;4.90;;
73675;SDS011;61975;48.660;10.164;2023-06-10T04:53:10;7.63;;;4.77;;
73675;SDS011;61975;48.660;10.164;2023-06-10T04:55:36;7.95;;;4.82;;
73675;SDS011;61975;48.660;10.164;2023-06-10T04:58:01;7.40;;;4.60;;
73675;SDS011;61975;48.660;10.164;2023-06-10T05:00:27;7.90;;;4.50;;
73675;SDS011;61975;48.660;10.164;2023-06-10T05:02:52;8.23;;;4.37;;
73675;SDS011;61975;48.660;10.164;2023-06-10T05:05:18;7.85;;;4.60;;
73675;SDS011;61975;48.660;10.164;2023-06-10T05:07:43;7.07;;;4.30;;
73675;SDS011;61975;48.660;10.164;2023-06-10T05:10:09;8.30;;;4.97;;
73675;SDS011;61975;48.660;10.164;2023-06-10T05:12:35;7.82;;;4.78;;
73675;SDS011;61975;48.660;10.164;2023-06-10T05:15:00;7.27;;;4.47;;
73675;SDS011;61975;48.660;10.164;2023-06-10T05:17:26;7.50;;;4.63;;
73675;SDS011;61975;48.660;10.164;2023-06-10T05:19:52;7.50;;;4.57;;
73675;SDS011;61975;48.660;10.164;2023-06-10T05:22:18;6.88;;;4.47;;
73675;SDS011;61975;48.660;10.164;2023-06-10T05:24:43;6.83;;;3.80;;
73675;SDS011;61975;48.660;10.164;2023-06-10T05:27:09;9.02;;;4.65;;
73675;SDS011;61975;48.660;10.164;2023-06-10T05:29:37;8.10;;;4.53;;
73675;SDS011;61975;48.660;10.164;2023-06-10T05:32:03;7.80;;;4.80;;
73675;SDS011;61975;48.660;10.164;2023-06-10T05:34:29;6.70;;;4.30;;
73675;SDS011;61975;48.660;10.164;2023-06-10T05:36:56;7.38;;;4.15;;
73675;SDS011;61975;48.660;10.164;2023-06-10T05:39:21;7.93;;;4.67;;
73675;SDS011;61975;48.660;10.164;2023-06-10T05:41:47;7.30;;;4.30;;
73675;SDS011;61975;48.660;10.164;2023-06-10T05:44:12;7.28;;;4.38;;
73675;SDS011;61975;48.660;10.164;2023-06-10T05:46:38;8.00;;;4.57;;
73675;SDS011;61975;48.660;10.164;2023-06-10T05:49:03;6.23;;;4.13;;
73675;SDS011;61975;48.660;10.164;2023-06-10T05:51:28;6.43;;;3.90;;
73675;SDS011;61975;48.660;10.164;2023-06-10T05:53:54;7.97;;;4.87;;
73675;SDS011;61975;48.660;10.164;2023-06-10T05:56:19;7.70;;;4.67;;
73675;SDS011;61975;48.660;10.164;2023-06-10T05:58:47;7.80;;;4.50;;
73675;SDS011;61975;48.660;10.164;2023-06-10T06:01:13;7.45;;;4.80;;
73675;SDS011;61975;48.660;10.164;2023-06-10T06:03:38;7.77;;;4.83;;
73675;SDS011;61975;48.660;10.164;2023-06-10T06:06:04;7.33;;;4.57;;
73675;SDS011;61975;48.660;10.164;2023-06-10T06:08:30;7.25;;;4.75;;
73675;SDS011;61975;48.660;10.164;2023-06-10T06:10:55;7.20;;;4.53;;
73675;SDS011;61975;48.660;10.164;2023-06-10T06:13:21;8.83;;;4.73;;
73675;SDS011;61975;48.660;10.164;2023-06-10T06:15:46;7.43;;;4.53;;
73675;SDS011;61975;48.660;10.164;2023-06-10T06:18:12;7.37;;;5.10;;
73675;SDS011;61975;48.660;10.164;2023-06-10T06:20:37;6.63;;;4.20;;
73675;SDS011;61975;48.660;10.164;2023-06-10T06:23:03;8.43;;;4.93;;
73675;SDS011;61975;48.660;10.164;2023-06-10T06:25:28;6.85;;;4.20;;
73675;SDS011;61975;48.660;10.164;2023-06-10T06:27:53;7.00;;;4.43;;
73675;SDS011;61975;48.660;10.164;2023-06-10T06:30:19;10.10;;;4.87;;
73675;SDS011;61975;48.660;10.164;2023-06-10T06:32:45;7.20;;;4.63;;
73675;SDS011;61975;48.660;10.164;2023-06-10T06:35:10;8.98;;;4.72;;
73675;SDS011;61975;48.660;10.164;2023-06-10T06:37:35;7.70;;;4.63;;
73675;SDS011;61975;48.660;10.164;2023-06-10T06:40:01;7.37;;;4.60;;
73675;SDS011;61975;48.660;10.164;2023-06-10T06:42:27;6.90;;;4.88;;
73675;SDS011;61975;48.660;10.164;2023-06-10T06:44:52;7.20;;;4.60;;
73675;SDS011;61975;48.660;10.164;2023-06-10T06:47:18;7.83;;;4.50;;
73675;SDS011;61975;48.660;10.164;2023-06-10T06:49:45;8.20;;;4.53;;
73675;SDS011;61975;48.660;10.164;2023-06-10T06:52:11;7.68;;;4.28;;
73675;SDS011;61975;48.660;10.164;2023-06-10T06:54:36;6.77;;;4.40;;
73675;SDS011;61975;48.660;10.164;2023-06-10T06:57:02;6.80;;;4.27;;
73675;SDS011;61975;48.660;10.164;2023-06-10T06:59:27;7.80;;;4.90;;
73675;SDS011;61975;48.660;10.164;2023-06-10T07:01:53;7.40;;;4.53;;
73675;SDS011;61975;48.660;10.164;2023-06-10T07:04:19;6.70;;;4.65;;
73675;SDS011;61975;48.660;10.164;2023-06-10T07:06:46;7.00;;;4.40;;
73675;SDS011;61975;48.660;10.164;2023-06-10T07:09:12;7.10;;;4.60;;
73675;SDS011;61975;48.660;10.164;2023-06-10T07:11:38;7.07;;;4.30;;
73675;SDS011;61975;48.660;10.164;2023-06-10T07:14:03;7.60;;;4.57;;
73675;SDS011;61975;48.660;10.164;2023-06-10T07:16:29;6.73;;;4.40;;
73675;SDS011;61975;48.660;10.164;2023-06-10T07:18:54;7.20;;;4.45;;
73675;SDS011;61975;48.660;10.164;2023-06-10T07:21:20;6.90;;;4.33;;
73675;SDS011;61975;48.660;10.164;2023-06-10T07:23:45;7.97;;;4.70;;
73675;SDS011;61975;48.660;10.164;2023-06-10T07:26:11;6.85;;;4.38;;
73675;SDS011;61975;48.660;10.164;2023-06-10T07:28:38;6.00;;;4.03;;
73675;SDS011;61975;48.660;10.164;2023-06-10T07:31:04;7.47;;;4.63;;
73675;SDS011;61975;48.660;10.164;2023-06-10T07:33:30;7.85;;;4.50;;
73675;SDS011;61975;48.660;10.164;2023-06-10T07:35:55;7.57;;;4.83;;
73675;SDS011;61975;48.660;10.164;2023-06-10T07:38:21;6.73;;;4.53;;
73675;SDS011;61975;48.660;10.164;2023-06-10T07:40:46;7.17;;;4.80;;
73675;SDS011;61975;48.660;10.164;2023-06-10T07:43:11;6.87;;;4.37;;
73675;SDS011;61975;48.660;10.164;2023-06-10T07:45:39;7.03;;;4.60;;
73675;SDS011;61975;48.660;10.164;2023-06-10T07:48:05;7.00;;;4.97;;
73675;SDS011;61975;48.660;10.164;2023-06-10T07:50:30;7.23;;;4.67;;
73675;SDS011;61975;48.660;10.164;2023-06-10T07:52:56;7.33;;;4.60;;
73675;SDS011;61975;48.660;10.164;2023-06-10T07:55:21;7.40;;;4.43;;
73675;SDS011;61975;48.660;10.164;2023-06-10T07:57:46;7.88;;;4.80;;
73675;SDS011;61975;48.660;10.164;2023-06-10T08:00:12;7.27;;;4.80;;
73675;SDS011;61975;48.660;10.164;2023-06-10T08:02:38;6.97;;;5.00;;
73675;SDS011;61975;48.660;10.164;2023-06-10T08:05:04;8.00;;;4.90;;
73675;SDS011;61975;48.660;10.164;2023-06-10T08:07:29;6.97;;;5.10;;
73675;SDS011;61975;48.660;10.164;2023-06-10T08:09:55;6.97;;;4.60;;
73675;SDS011;61975;48.660;10.164;2023-06-10T08:12:21;7.10;;;4.47;;
73675;SDS011;61975;48.660;10.164;2023-06-10T08:14:46;7.00;;;5.00;;
73675;SDS011;61975;48.660;10.164;2023-06-10T08:17:12;6.67;;;4.60;;
73675;SDS011;61975;48.660;10.164;2023-06-10T08:19:37;6.67;;;4.63;;
73675;SDS011;61975;48.660;10.164;2023-06-10T08:22:03;6.73;;;4.50;;
73675;SDS011;61975;48.660;10.164;2023-06-10T08:24:28;8.20;;;5.07;;
73675;SDS011;61975;48.660;10.164;2023-06-10T08:26:54;7.10;;;4.60;;
73675;SDS011;61975;48.660;10.164;2023-06-10T08:29:21;7.20;;;4.80;;
73675;SDS011;61975;48.660;10.164;2023-06-10T08:31:46;7.60;;;4.68;;
73675;SDS011;61975;48.660;10.164;2023-06-10T08:34:12;8.03;;;4.60;;
73675;SDS011;61975;48.660;10.164;2023-06-10T08:36:37;7.07;;;4.80;;
73675;SDS011;61975;48.660;10.164;2023-06-10T08:39:03;8.43;;;4.90;;
73675;SDS011;61975;48.660;10.164;2023-06-10T08:41:28;8.33;;;4.60;;
73675;SDS011;61975;48.660;10.164;2023-06-10T08:46:25;7.50;;;5.03;;
73675;SDS011;61975;48.660;10.164;2023-06-10T08:48:52;7.83;;;5.20;;
73675;SDS011;61975;48.660;10.164;2023-06-10T08:51:20;6.57;;;4.28;;
73675;SDS011;61975;48.660;10.164;2023-06-10T08:54:01;7.55;;;4.82;;
73675;SDS011;61975;48.660;10.164;2023-06-10T08:56:28;7.68;;;4.22;;
73675;SDS011;61975;48.660;10.164;2023-06-10T08:58:55;7.85;;;5.55;;
73675;SDS011;61975;48.660;10.164;2023-06-10T09:01:23;6.93;;;5.03;;
73675;SDS011;61975;48.660;10.164;2023-06-10T09:03:50;6.35;;;4.82;;
73675;SDS011;61975;48.660;10.164;2023-06-10T09:06:16;8.90;;;5.07;;
73675;SDS011;61975;48.660;10.164;2023-06-10T09:08:43;7.07;;;4.93;;
73675;SDS011;61975;48.660;10.164;2023-06-10T09:11:08;6.40;;;4.50;;
73675;SDS011;61975;48.660;10.164;2023-06-10T09:13:34;6.83;;;4.77;;
73675;SDS011;61975;48.660;10.164;2023-06-10T09:15:59;7.30;;;5.27;;
73675;SDS011;61975;48.660;10.164;2023-06-10T09:18:27;7.22;;;5.20;;
73675;SDS011;61975;48.660;10.164;2023-06-10T09:20:53;7.60;;;4.70;;
73675;SDS011;61975;48.660;10.164;2023-06-10T09:23:19;7.17;;;4.97;;
73675;SDS011;61975;48.660;10.164;2023-06-10T09:25:44;7.70;;;5.10;;
73675;SDS011;61975;48.660;10.164;2023-06-10T09:28:13;6.65;;;4.95;;
73675;SDS011;61975;48.660;10.164;2023-06-10T09:30:40;6.23;;;4.83;;
73675;SDS011;61975;48.660;10.164;2023-06-10T09:33:12;7.03;;;4.82;;
73675;SDS011;61975;48.660;10.164;2023-06-10T09:35:44;6.23;;;4.80;;
73675;SDS011;61975;48.660;10.164;2023-06-10T09:38:11;7.20;;;5.13;;
73675;SDS011;61975;48.660;10.164;2023-06-10T09:40:56;7.20;;;5.13;;
73675;SDS011;61975;48.660;10.164;2023-06-10T09:43:21;7.50;;;5.03;;
73675;SDS011;61975;48.660;10.164;2023-06-10T09:45:48;6.82;;;4.90;;
73675;SDS011;61975;48.660;10.164;2023-06-10T09:48:14;6.37;;;4.80;;
73675;SDS011;61975;48.660;10.164;2023-06-10T09:50:43;7.80;;;5.13;;
73675;SDS011;61975;48.660;10.164;2023-06-10T09:53:09;6.93;;;4.73;;
73675;SDS011;61975;48.660;10.164;2023-06-10T09:55:37;6.90;;;4.65;;
73675;SDS011;61975;48.660;10.164;2023-06-10T09:58:03;6.72;;;4.28;;
73675;SDS011;61975;48.660;10.164;2023-06-10T10:00:31;6.80;;;4.53;;
73675;SDS011;61975;48.660;10.164;2023-06-10T10:02:58;6.22;;;4.93;;
73675;SDS011;61975;48.660;10.164;2023-06-10T10:05:23;6.35;;;4.80;;
73675;SDS011;61975;48.660;10.164;2023-06-10T10:07:49;6.33;;;4.40;;
73675;SDS011;61975;48.660;10.164;2023-06-10T10:10:15;6.65;;;4.80;;
73675;SDS011;61975;48.660;10.164;2023-06-10T10:12:42;6.63;;;4.40;;
73675;SDS011;61975;48.660;10.164;2023-06-10T10:15:08;5.93;;;4.37;;
73675;SDS011;61975;48.660;10.164;2023-06-10T10:17:44;6.10;;;4.53;;
73675;SDS011;61975;48.660;10.164;2023-06-10T10:20:14;7.05;;;4.80;;
73675;SDS011;61975;48.660;10.164;2023-06-10T10:22:45;5.93;;;4.63;;
73675;SDS011;61975;48.660;10.164;2023-06-10T10:25:16;6.15;;;4.53;;
73675;SDS011;61975;48.660;10.164;2023-06-10T10:27:51;6.68;;;4.60;;
73675;SDS011;61975;48.660;10.164;2023-06-10T10:30:22;6.05;;;4.18;;
73675;SDS011;61975;48.660;10.164;2023-06-10T10:35:21;5.70;;;4.20;;
73675;SDS011;61975;48.660;10.164;2023-06-10T10:37:48;5.47;;;4.15;;
73675;SDS011;61975;48.660;10.164;2023-06-10T10:40:16;5.18;;;3.90;;
73675;SDS011;61975;48.660;10.164;2023-06-10T10:42:42;8.02;;;4.55;;
73675;SDS011;61975;48.660;10.164;2023-06-10T10:45:08;6.40;;;4.60;;
73675;SDS011;61975;48.660;10.164;2023-06-10T10:47:34;6.67;;;4.23;;
73675;SDS011;61975;48.660;10.164;2023-06-10T10:50:03;5.35;;;4.10;;
73675;SDS011;61975;48.660;10.164;2023-06-10T10:53:00;5.97;;;4.15;;
73675;SDS011;61975;48.660;10.164;2023-06-10T10:55:26;7.05;;;4.60;;
73675;SDS011;61975;48.660;10.164;2023-06-10T11:00:44;6.93;;;5.23;;
73675;SDS011;61975;48.660;10.164;2023-06-10T11:03:14;6.80;;;4.70;;
73675;SDS011;61975;48.660;10.164;2023-06-10T11:05:44;5.60;;;4.30;;
73675;SDS011;61975;48.660;10.164;2023-06-10T11:08:15;6.40;;;4.05;;
73675;SDS011;61975;48.660;10.164;2023-06-10T11:11:00;5.30;;;3.88;;
73675;SDS011;61975;48.660;10.164;2023-06-10T11:13:26;5.30;;;4.07;;
73675;SDS011;61975;48.660;10.164;2023-06-10T11:15:53;6.60;;;4.40;;
73675;SDS011;61975;48.660;10.164;2023-06-10T11:18:23;5.50;;;4.00;;
73675;SDS011;61975;48.660;10.164;2023-06-10T11:21:00;6.07;;;4.10;;
73675;SDS011;61975;48.660;10.164;2023-06-10T11:28:38;6.38;;;4.55;;
73675;SDS011;61975;48.660;10.164;2023-06-10T11:31:03;6.78;;;5.00;;
73675;SDS011;61975;48.660;10.164;2023-06-10T11:33:29;7.57;;;4.40;;
73675;SDS011;61975;48.660;10.164;2023-06-10T11:35:56;6.38;;;4.60;;
73675;SDS011;61975;48.660;10.164;2023-06-10T11:38:21;7.87;;;4.73;;
73675;SDS011;61975;48.660;10.164;2023-06-10T11:40:50;6.18;;;4.60;;
73675;SDS011;61975;48.660;10.164;2023-06-10T11:43:19;7.45;;;5.45;;
73675;SDS011;61975;48.660;10.164;2023-06-10T11:45:45;8.23;;;5.40;;
73675;SDS011;61975;48.660;10.164;2023-06-10T11:48:10;7.55;;;4.90;;
73675;SDS011;61975;48.660;10.164;2023-06-10T11:50:38;8.52;;;4.97;;
73675;SDS011;61975;48.660;10.164;2023-06-10T11:53:07;6.07;;;4.72;;
73675;SDS011;61975;48.660;10.164;2023-06-10T11:55:43;5.65;;;4.53;;
73675;SDS011;61975;48.660;10.164;2023-06-10T11:58:15;7.63;;;4.53;;
73675;SDS011;61975;48.660;10.164;2023-06-10T12:00:45;5.80;;;4.50;;
73675;SDS011;61975;48.660;10.164;2023-06-10T12:03:11;5.95;;;4.38;;
73675;SDS011;61975;48.660;10.164;2023-06-10T12:05:36;5.93;;;4.53;;
73675;SDS011;61975;48.660;10.164;2023-06-10T12:08:11;11.23;;;4.73;;
73675;SDS011;61975;48.660;10.164;2023-06-10T12:10:42;6.45;;;4.90;;
73675;SDS011;61975;48.660;10.164;2023-06-10T12:13:08;5.60;;;4.60;;
73675;SDS011;61975;48.660;10.164;2023-06-10T12:15:34;6.07;;;4.75;;
73675;SDS011;61975;48.660;10.164;2023-06-10T12:18:00;6.73;;;4.57;;
73675;SDS011;61975;48.660;10.164;2023-06-10T12:20:30;6.60;;;4.80;;
73675;SDS011;61975;48.660;10.164;2023-06-10T12:23:00;6.70;;;4.70;;
73675;SDS011;61975;48.660;10.164;2023-06-10T12:25:27;5.40;;;4.23;;
73675;SDS011;61975;48.660;10.164;2023-06-10T12:27:54;5.75;;;4.15;;
73675;SDS011;61975;48.660;10.164;2023-06-10T12:30:22;5.93;;;4.40;;
73675;SDS011;61975;48.660;10.164;2023-06-10T12:32:49;5.65;;;4.38;;
73675;SDS011;61975;48.660;10.164;2023-06-10T12:35:19;5.72;;;4.40;;
73675;SDS011;61975;48.660;10.164;2023-06-10T12:40:32;6.65;;;4.50;;
73675;SDS011;61975;48.660;10.164;2023-06-10T12:42:59;5.68;;;4.70;;
73675;SDS011;61975;48.660;10.164;2023-06-10T12:45:29;6.70;;;4.47;;
73675;SDS011;61975;48.660;10.164;2023-06-10T12:48:11;6.85;;;4.10;;
73675;SDS011;61975;48.660;10.164;2023-06-10T12:50:40;5.40;;;4.07;;
73675;SDS011;61975;48.660;10.164;2023-06-10T12:53:07;11.20;;;4.80;;
73675;SDS011;61975;48.660;10.164;2023-06-10T12:55:33;5.80;;;4.32;;
73675;SDS011;61975;48.660;10.164;2023-06-10T12:57:59;7.80;;;4.53;;
73675;SDS011;61975;48.660;10.164;2023-06-10T13:00:26;5.40;;;4.40;;
73675;SDS011;61975;48.660;10.164;2023-06-10T13:02:55;6.25;;;4.50;;
73675;SDS011;61975;48.660;10.164;2023-06-10T13:05:25;7.15;;;4.70;;
73675;SDS011;61975;48.660;10.164;2023-06-10T13:07:51;5.87;;;4.27;;
73675;SDS011;61975;48.660;10.164;2023-06-10T13:10:16;6.13;;;4.00;;
73675;SDS011;61975;48.660;10.164;2023-06-10T13:12:43;6.47;;;4.60;;
73675;SDS011;61975;48.660;10.164;2023-06-10T13:15:09;6.28;;;4.40;;
73675;SDS011;61975;48.660;10.164;2023-06-10T13:17:35;6.13;;;4.65;;
73675;SDS011;61975;48.660;10.164;2023-06-10T13:20:04;6.17;;;4.67;;
73675;SDS011;61975;48.660;10.164;2023-06-10T13:25:03;5.93;;;4.60;;
73675;SDS011;61975;48.660;10.164;2023-06-10T13:27:30;6.63;;;4.50;;
73675;SDS011;61975;48.660;10.164;2023-06-10T13:29:55;5.68;;;4.57;;
73675;SDS011;61975;48.660;10.164;2023-06-10T13:32:21;5.40;;;4.10;;
73675;SDS011;61975;48.660;10.164;2023-06-10T13:34:46;6.57;;;4.38;;
73675;SDS011;61975;48.660;10.164;2023-06-10T13:37:12;6.73;;;4.80;;
73675;SDS011;61975;48.660;10.164;2023-06-10T13:39:38;8.60;;;4.33;;
73675;SDS011;61975;48.660;10.164;2023-06-10T13:42:04;6.10;;;4.10;;
73675;SDS011;61975;48.660;10.164;2023-06-10T13:44:31;6.32;;;4.45;;
73675;SDS011;61975;48.660;10.164;2023-06-10T13:46:58;6.88;;;4.50;;
73675;SDS011;61975;48.660;10.164;2023-06-10T13:49:24;6.70;;;4.53;;
73675;SDS011;61975;48.660;10.164;2023-06-10T13:51:50;6.22;;;4.50;;
73675;SDS011;61975;48.660;10.164;2023-06-10T13:54:15;6.40;;;4.40;;
73675;SDS011;61975;48.660;10.164;2023-06-10T13:56:41;6.00;;;4.27;;
73675;SDS011;61975;48.660;10.164;2023-06-10T13:59:07;5.30;;;4.13;;
73675;SDS011;61975;48.660;10.164;2023-06-10T14:01:32;5.83;;;4.33;;
73675;SDS011;61975;48.660;10.164;2023-06-10T14:03:58;6.77;;;4.53;;
73675;SDS011;61975;48.660;10.164;2023-06-10T14:06:23;6.20;;;4.30;;
73675;SDS011;61975;48.660;10.164;2023-06-10T14:08:49;5.77;;;4.30;;
73675;SDS011;61975;48.660;10.164;2023-06-10T14:11:14;6.18;;;4.30;;
73675;SDS011;61975;48.660;10.164;2023-06-10T14:13:40;5.60;;;4.30;;
73675;SDS011;61975;48.660;10.164;2023-06-10T14:16:05;6.00;;;4.50;;
73675;SDS011;61975;48.660;10.164;2023-06-10T14:18:31;6.32;;;4.53;;
73675;SDS011;61975;48.660;10.164;2023-06-10T14:20:56;9.27;;;4.43;;
73675;SDS011;61975;48.660;10.164;2023-06-10T14:23:21;5.70;;;4.10;;
73675;SDS011;61975;48.660;10.164;2023-06-10T14:25:47;6.88;;;4.15;;
73675;SDS011;61975;48.660;10.164;2023-06-10T14:28:13;7.20;;;4.07;;
73675;SDS011;61975;48.660;10.164;2023-06-10T14:30:38;5.40;;;4.07;;
73675;SDS011;61975;48.660;10.164;2023-06-10T14:33:04;5.73;;;4.20;;
73675;SDS011;61975;48.660;10.164;2023-06-10T14:35:30;6.55;;;4.05;;
73675;SDS011;61975;48.660;10.164;2023-06-10T14:37:56;5.90;;;4.07;;
73675;SDS011;61975;48.660;10.164;2023-06-10T14:40:21;5.88;;;4.45;;
73675;SDS011;61975;48.660;10.164;2023-06-10T14:42:48;6.80;;;4.40;;
73675;SDS011;61975;48.660;10.164;2023-06-10T14:45:13;5.68;;;4.28;;
73675;SDS011;61975;48.660;10.164;2023-06-10T14:47:40;5.55;;;4.38;;
73675;SDS011;61975;48.660;10.164;2023-06-10T14:50:05;5.57;;;4.27;;
73675;SDS011;61975;48.660;10.164;2023-06-10T14:52:31;7.77;;;4.93;;